Hartford, Connecticut
Traffic Map
Current Weather Conditions
Hartford, Connecticut
Scattered Clouds
Scattered Clouds
35°
Feels Like: 29°
Wind Chill: 29° Ceiling: Unl
Heat Index: 35° Visibility: 10mi
Dew Point: 23° Wind: 7mph
Humidity: 61% Direction: 300° (WNW)
Pressure: 30in Gusts: 0mph
Raw Report DataKHFD 200853Z AUTO 30006KT 10SM FEW036 SCT070 02/M05 A3000 RMK AO2 SLP157 T00171050 53016
Traffic Incident Summary
Active as of:
Severity:
Category:
InformationThere was an issue retrieving the traffic information for this location. Please try a different location or try again shortly.
Advertisements